Time;durP1;ratioP1;P1;durP2;ratioP2;P2;SDS_P1;SDS_P2;PMS_P1;PMS_P2;Temp;Humidity;BMP_temperature;BMP_pressure;BME280_temperature;BME280_humidity;BME280_pressure;Samples;Min_cycle;Max_cycle;Signal;HPM_P1;HPM_P2
2022/03/16 00:01:47;;;;;;;52.20;39.22;;;;;;;2.64;100.00;102292.34;5092569;28;20467;-66
2022/03/16 00:04:13;;;;;;;55.08;42.20;;;;;;;2.65;100.00;102291.53;5092621;28;20580;-66
2022/03/16 00:06:38;;;;;;;54.30;40.33;;;;;;;2.53;100.00;102289.06;5085938;28;20024;-66
2022/03/16 00:09:04;;;;;;;53.72;40.70;;;;;;;2.50;100.00;102295.81;5085038;28;20032;-67
2022/03/16 00:11:29;;;;;;;55.38;43.15;;;;;;;2.49;100.00;102292.31;5089483;28;20089;-68
2022/03/16 00:13:54;;;;;;;58.30;43.85;;;;;;;2.48;100.00;102293.13;5088656;28;20047;-68
2022/03/16 00:16:19;;;;;;;58.97;44.35;;;;;;;2.49;100.00;102291.41;5092495;28;20036;-68
2022/03/16 00:18:45;;;;;;;57.88;45.08;;;;;;;2.43;100.00;102289.31;5092542;28;20028;-68
2022/03/16 00:21:10;;;;;;;62.22;46.45;;;;;;;2.41;100.00;102297.06;5092594;28;20103;-67
2022/03/16 00:23:35;;;;;;;62.65;47.08;;;;;;;2.43;100.00;102297.16;5092575;28;20125;-68
2022/03/16 00:26:01;;;;;;;61.50;46.40;;;;;;;2.40;100.00;102291.75;5092506;28;20020;-68
2022/03/16 00:28:26;;;;;;;61.42;46.88;;;;;;;2.43;100.00;102291.94;5092370;28;20032;-67
2022/03/16 00:30:52;;;;;;;65.70;47.38;;;;;;;2.46;100.00;102296.44;5092445;28;20020;-68
2022/03/16 00:33:17;;;;;;;62.15;46.33;;;;;;;2.51;100.00;102295.03;5092633;28;20051;-68
2022/03/16 00:35:42;;;;;;;67.47;47.55;;;;;;;2.49;100.00;102300.16;5095839;28;20048;-68
2022/03/16 00:38:09;;;;;;;63.70;46.10;;;;;;;2.44;100.00;102307.69;5096260;28;20118;-67
2022/03/16 00:40:35;;;;;;;57.45;44.28;;;;;;;2.37;100.00;102300.28;5096366;28;20036;-68
2022/03/16 00:43:01;;;;;;;58.50;43.83;;;;;;;2.29;100.00;102298.94;5095871;28;20462;-68
2022/03/16 00:45:26;;;;;;;59.75;45.10;;;;;;;2.28;100.00;102293.63;5096134;28;20028;-67
2022/03/16 00:47:51;;;;;;;58.70;44.58;;;;;;;2.17;100.00;102291.25;5096112;28;20059;-68
2022/03/16 00:50:17;;;;;;;56.97;42.63;;;;;;;2.22;100.00;102291.53;5095784;28;20032;-67
2022/03/16 00:52:43;;;;;;;56.42;42.25;;;;;;;2.11;100.00;102292.56;5095933;28;20028;-67
2022/03/16 00:55:08;;;;;;;55.42;41.70;;;;;;;2.07;100.00;102291.50;5095621;28;20035;-67
2022/03/16 00:57:34;;;;;;;57.78;44.40;;;;;;;2.05;100.00;102287.88;5095615;28;20402;-67
2022/03/16 01:00:00;;;;;;;61.67;45.72;;;;;;;2.12;100.00;102294.38;5095825;28;20055;-67
2022/03/16 01:02:25;;;;;;;59.05;44.45;;;;;;;2.12;100.00;102295.28;5095647;28;20020;-67
2022/03/16 01:04:51;;;;;;;57.67;44.55;;;;;;;2.13;100.00;102298.81;5095865;28;20500;-67
2022/03/16 01:07:16;;;;;;;58.45;44.85;;;;;;;2.11;100.00;102293.47;5095729;28;20478;-67
2022/03/16 01:09:41;;;;;;;58.35;44.83;;;;;;;2.06;100.00;102289.69;5095575;28;20031;-67
2022/03/16 01:12:08;;;;;;;59.28;44.95;;;;;;;2.03;100.00;102290.38;5095570;28;20467;-65
2022/03/16 01:14:34;;;;;;;57.78;44.65;;;;;;;1.99;100.00;102283.16;5095752;28;20386;-65
2022/03/16 01:16:59;;;;;;;61.80;46.70;;;;;;;2.12;100.00;102283.94;5095171;28;20032;-66
2022/03/16 01:19:24;;;;;;;61.17;46.28;;;;;;;2.11;100.00;102282.13;5095487;28;20066;-66
2022/03/16 01:21:50;;;;;;;63.13;47.25;;;;;;;2.13;100.00;102280.53;5095211;28;20016;-66
2022/03/16 01:24:15;;;;;;;64.38;47.60;;;;;;;2.02;100.00;102274.63;5095159;28;20067;-66
2022/03/16 01:26:40;;;;;;;63.65;48.13;;;;;;;2.01;100.00;102281.56;5095563;28;20039;-66
2022/03/16 01:29:06;;;;;;;64.55;47.28;;;;;;;2.09;100.00;102277.72;5095084;28;20036;-66
2022/03/16 01:31:31;;;;;;;65.65;49.28;;;;;;;2.12;100.00;102274.41;5095051;28;20020;-66
2022/03/16 01:33:57;;;;;;;68.00;49.08;;;;;;;2.07;100.00;102271.50;5095168;28;20028;-66
2022/03/16 01:36:22;;;;;;;66.15;48.92;;;;;;;2.09;100.00;102275.09;5094714;28;20429;-66
2022/03/16 01:38:47;;;;;;;70.10;50.38;;;;;;;2.13;100.00;102278.81;5094886;28;20085;-66
2022/03/16 01:41:14;;;;;;;70.63;51.80;;;;;;;2.14;100.00;102278.03;5094825;28;20157;-65
2022/03/16 01:43:39;;;;;;;68.82;50.63;;;;;;;2.11;100.00;102263.88;5094927;28;20024;-66
2022/03/16 01:46:05;;;;;;;69.95;50.45;;;;;;;2.13;100.00;102264.88;5094291;28;20028;-66
2022/03/16 01:48:30;;;;;;;68.55;50.08;;;;;;;2.15;100.00;102258.94;5095016;28;20046;-66
2022/03/16 01:50:56;;;;;;;72.50;51.92;;;;;;;2.07;100.00;102254.97;5094774;28;20532;-66
2022/03/16 01:53:21;;;;;;;68.55;49.38;;;;;;;2.09;100.00;102242.91;5094741;28;20020;-66
2022/03/16 01:55:47;;;;;;;72.55;52.58;;;;;;;2.05;100.00;102247.06;5094431;28;20085;-66
2022/03/16 01:58:13;;;;;;;70.50;53.00;;;;;;;2.06;100.00;102242.72;5094539;28;20028;-66
2022/03/16 02:00:40;;;;;;;71.07;52.50;;;;;;;2.10;100.00;102244.72;5086485;28;20085;-66
2022/03/16 02:03:09;;;;;;;75.75;54.10;;;;;;;2.14;100.00;102257.16;5094490;28;20039;-66
2022/03/16 02:05:36;;;;;;;74.25;53.72;;;;;;;2.14;100.00;102237.97;5094339;28;20052;-67
2022/03/16 02:08:03;;;;;;;73.63;52.92;;;;;;;2.09;100.00;102233.34;5094850;28;20058;-66
2022/03/16 02:10:29;;;;;;;71.95;53.45;;;;;;;2.02;100.00;102231.19;5094308;28;20024;-66
2022/03/16 02:12:55;;;;;;;71.30;52.45;;;;;;;2.02;100.00;102236.41;5094362;28;20039;-66
2022/03/16 02:15:21;;;;;;;75.57;53.53;;;;;;;2.03;100.00;102237.31;5094327;28;20383;-66
2022/03/16 02:17:50;;;;;;;73.15;53.85;;;;;;;2.04;100.00;102231.28;5094157;28;20115;-66
2022/03/16 02:20:16;;;;;;;68.70;52.13;;;;;;;2.00;100.00;102227.59;5094054;28;20032;-66
2022/03/16 02:22:52;;;;;;;68.40;50.22;;;;;;;1.96;100.00;102228.19;5094250;28;20031;-67
2022/03/16 02:25:18;;;;;;;70.32;51.05;;;;;;;1.95;100.00;102229.00;5088737;28;20028;-66
2022/03/16 02:27:43;;;;;;;68.43;51.78;;;;;;;1.91;100.00;102232.25;5094271;28;20020;-66
2022/03/16 02:30:09;;;;;;;69.82;52.63;;;;;;;1.88;100.00;102232.06;5092650;28;20063;-66
2022/03/16 02:32:35;;;;;;;70.13;52.95;;;;;;;1.86;100.00;102231.94;5094110;28;20031;-67
2022/03/16 02:35:00;;;;;;;69.40;52.00;;;;;;;1.84;100.00;102227.47;5093539;28;20371;-66
2022/03/16 02:37:26;;;;;;;71.85;52.67;;;;;;;1.78;100.00;102238.41;5094073;28;20024;-66
2022/03/16 02:39:51;;;;;;;67.53;52.90;;;;;;;1.70;100.00;102235.34;5094109;28;20100;-66
2022/03/16 02:42:16;;;;;;;69.68;52.80;;;;;;;1.73;100.00;102235.53;5093751;28;21013;-67
2022/03/16 02:44:42;;;;;;;67.68;52.42;;;;;;;1.68;100.00;102234.31;5094090;28;20016;-67
2022/03/16 02:47:08;;;;;;;69.18;53.22;;;;;;;1.62;100.00;102236.53;5093857;28;20024;-67
2022/03/16 02:49:34;;;;;;;67.93;50.95;;;;;;;1.58;100.00;102229.34;5093481;28;20651;-66
2022/03/16 02:52:05;;;;;;;68.75;49.88;;;;;;;1.54;100.00;102224.72;5093973;28;20099;-65
2022/03/16 02:54:30;;;;;;;65.07;50.22;;;;;;;1.47;100.00;102226.06;5093951;28;20028;-66
2022/03/16 02:56:56;;;;;;;66.13;51.22;;;;;;;1.44;100.00;102218.03;5092432;28;20425;-66
2022/03/16 02:59:21;;;;;;;67.22;50.67;;;;;;;1.42;100.00;102216.16;5093566;28;20543;-66
2022/03/16 03:01:46;;;;;;;60.97;48.78;;;;;;;1.36;100.00;102204.50;5093644;28;20474;-67
2022/03/16 03:04:11;;;;;;;65.47;50.25;;;;;;;1.35;100.00;102217.44;5093274;28;20016;-66
2022/03/16 03:06:37;;;;;;;69.78;53.15;;;;;;;1.40;100.00;102205.63;5093441;28;20051;-66
2022/03/16 03:09:02;;;;;;;70.03;51.58;;;;;;;1.36;100.00;102201.91;5093197;28;20137;-66
2022/03/16 03:11:27;;;;;;;71.93;53.75;;;;;;;1.42;100.00;102208.31;5093030;28;20020;-66
2022/03/16 03:13:53;;;;;;;68.45;51.08;;;;;;;1.35;100.00;102214.84;5093510;28;20024;-66
2022/03/16 03:16:18;;;;;;;69.57;52.65;;;;;;;1.36;100.00;102198.41;5092933;28;20028;-65
2022/03/16 03:18:43;;;;;;;68.78;52.25;;;;;;;1.35;100.00;102204.41;5093054;28;20078;-66
2022/03/16 03:21:09;;;;;;;71.93;52.63;;;;;;;1.33;100.00;102209.53;5093514;28;20478;-66
2022/03/16 03:23:35;;;;;;;74.78;53.35;;;;;;;1.37;100.00;102216.75;5092946;28;20483;-66
2022/03/16 03:26:00;;;;;;;73.63;53.95;;;;;;;1.38;100.00;102213.34;5091465;28;20047;-66
2022/03/16 03:28:25;;;;;;;75.78;55.40;;;;;;;1.45;100.00;102221.56;5093063;28;20031;-66
2022/03/16 03:30:51;;;;;;;80.22;58.47;;;;;;;1.49;100.00;102226.16;5093139;28;20024;-66
2022/03/16 03:33:16;;;;;;;78.43;56.85;;;;;;;1.50;100.00;102222.72;5093034;28;20020;-67
2022/03/16 03:35:41;;;;;;;79.18;55.92;;;;;;;1.52;100.00;102222.03;5091196;28;20085;-66
2022/03/16 03:38:07;;;;;;;79.57;57.40;;;;;;;1.53;100.00;102222.91;5092719;28;20043;-66
2022/03/16 03:40:32;;;;;;;78.97;57.38;;;;;;;1.51;100.00;102217.59;5093209;28;20024;-66
2022/03/16 03:42:57;;;;;;;78.55;56.08;;;;;;;1.51;100.00;102212.38;5092599;28;20055;-65
2022/03/16 03:45:22;;;;;;;73.70;54.58;;;;;;;1.48;100.00;102214.81;5092885;28;20091;-66
2022/03/16 03:47:48;;;;;;;72.13;52.65;;;;;;;1.37;100.00;102219.34;5092897;28;20024;-66
2022/03/16 03:50:13;;;;;;;71.40;54.70;;;;;;;1.39;100.00;102215.13;5092721;28;20024;-68
2022/03/16 03:52:39;;;;;;;72.25;53.45;;;;;;;1.42;100.00;102217.03;5092729;28;20020;-66
2022/03/16 03:55:05;;;;;;;75.65;55.35;;;;;;;1.46;100.00;102211.22;5092980;28;20078;-66
2022/03/16 03:57:30;;;;;;;77.63;56.08;;;;;;;1.46;100.00;102218.16;5092423;28;20036;-66
2022/03/16 03:59:55;;;;;;;75.70;55.03;;;;;;;1.52;100.00;102216.81;5092723;28;20024;-66
2022/03/16 04:02:21;;;;;;;78.45;56.45;;;;;;;1.56;100.00;102217.91;5090799;28;20435;-66
2022/03/16 04:04:46;;;;;;;76.30;56.40;;;;;;;1.53;100.00;102213.41;5075476;28;20522;-67
2022/03/16 04:07:11;;;;;;;73.88;55.15;;;;;;;1.52;100.00;102216.81;5093068;28;20024;-66
2022/03/16 04:09:37;;;;;;;77.70;57.17;;;;;;;1.54;100.00;102214.28;5096644;28;20023;-66
2022/03/16 04:12:02;;;;;;;80.50;57.13;;;;;;;1.59;100.00;102210.28;5095143;28;20027;-67
2022/03/16 04:14:28;;;;;;;80.55;57.60;;;;;;;1.60;100.00;102209.47;5096858;28;20071;-66
2022/03/16 04:16:53;;;;;;;78.43;56.95;;;;;;;1.58;100.00;102205.88;5096704;28;20052;-67
2022/03/16 04:19:18;;;;;;;78.05;57.67;;;;;;;1.59;100.00;102206.75;5096647;28;20024;-66
2022/03/16 04:21:43;;;;;;;78.38;57.63;;;;;;;1.59;100.00;102207.69;5097002;28;20391;-67
2022/03/16 04:24:09;;;;;;;78.38;56.65;;;;;;;1.59;100.00;102206.75;5096365;28;20107;-67
2022/03/16 04:26:34;;;;;;;77.40;55.50;;;;;;;1.55;100.00;102203.97;5096361;28;20049;-67
2022/03/16 04:29:02;;;;;;;83.13;60.00;;;;;;;1.56;100.00;102207.50;5096357;28;20095;-68
2022/03/16 04:31:28;;;;;;;84.60;59.72;;;;;;;1.57;100.00;102206.66;5096205;28;20032;-67
2022/03/16 04:33:55;;;;;;;83.10;58.95;;;;;;;1.54;100.00;102202.19;5096175;28;20045;-67
2022/03/16 04:36:20;;;;;;;81.15;57.58;;;;;;;1.51;100.00;102201.97;5083854;28;20048;-67
2022/03/16 04:38:46;;;;;;;85.10;60.00;;;;;;;1.51;100.00;102201.97;5096150;28;20031;-68
2022/03/16 04:41:11;;;;;;;85.95;61.30;;;;;;;1.50;100.00;102201.88;5096006;28;20493;-67
2022/03/16 04:43:36;;;;;;;88.18;62.72;;;;;;;1.51;100.00;102207.19;5096266;28;20028;-68
2022/03/16 04:46:02;;;;;;;87.13;61.55;;;;;;;1.50;100.00;102208.00;5095691;28;20463;-67
2022/03/16 04:48:27;;;;;;;88.90;62.97;;;;;;;1.56;100.00;102207.50;5095995;28;20039;-67
2022/03/16 04:50:52;;;;;;;90.38;64.63;;;;;;;1.53;100.00;102208.19;5095959;28;20024;-67
2022/03/16 04:53:18;;;;;;;88.53;64.53;;;;;;;1.50;100.00;102202.78;5086878;28;20028;-68
2022/03/16 04:55:43;;;;;;;92.53;66.72;;;;;;;1.47;100.00;102199.06;5090404;28;20039;-68
2022/03/16 04:58:09;;;;;;;89.72;64.55;;;;;;;1.43;100.00;102199.69;5093047;28;20031;-66
2022/03/16 05:00:36;;;;;;;91.93;67.78;;;;;;;1.47;100.00;102201.69;5095857;28;20024;-66
2022/03/16 05:03:02;;;;;;;93.43;67.03;;;;;;;1.46;100.00;102206.00;5095822;28;20024;-66
2022/03/16 05:05:28;;;;;;;92.70;67.07;;;;;;;1.50;100.00;102207.09;5095526;28;20034;-66
2022/03/16 05:07:54;;;;;;;95.63;67.80;;;;;;;1.53;100.00;102209.88;5094225;28;20016;-66
2022/03/16 05:10:20;;;;;;;99.28;71.38;;;;;;;1.60;100.00;102212.06;5095573;28;20024;-66
2022/03/16 05:12:45;;;;;;;99.03;70.20;;;;;;;1.59;100.00;102212.91;5095426;28;20030;-65
2022/03/16 05:15:24;;;;;;;101.40;70.03;;;;;;;1.58;100.00;102211.09;5095291;28;20034;-67
2022/03/16 05:17:49;;;;;;;98.22;69.20;;;;;;;1.59;100.00;102202.47;5095397;28;20364;-66
2022/03/16 05:20:16;;;;;;;98.35;66.78;;;;;;;1.52;100.00;102211.59;5094796;28;20024;-66
2022/03/16 05:22:51;;;;;;;90.75;66.18;;;;;;;1.43;100.00;102202.28;5095169;28;20031;-65
2022/03/16 05:25:22;;;;;;;83.15;60.88;;;;;;;1.30;100.00;102198.03;5095469;28;20016;-67
2022/03/16 05:27:48;;;;;;;82.93;59.65;;;;;;;1.23;100.00;102201.03;5095135;28;20020;-67
2022/03/16 05:30:14;;;;;;;82.45;61.08;;;;;;;1.28;100.00;102195.34;5095101;28;20454;-68
2022/03/16 05:32:41;;;;;;;94.03;66.18;;;;;;;1.37;100.00;102188.09;5094962;28;20061;-67
2022/03/16 05:35:08;;;;;;;94.85;69.07;;;;;;;1.45;100.00;102192.88;5093623;28;20024;-66
2022/03/16 05:37:34;;;;;;;96.03;70.22;;;;;;;1.50;100.00;102181.94;5095078;28;20030;-67
2022/03/16 05:39:59;;;;;;;97.43;68.65;;;;;;;1.51;100.00;102182.84;5094818;28;20397;-66
2022/03/16 05:42:25;;;;;;;96.32;70.20;;;;;;;1.52;100.00;102179.44;5095275;28;20024;-67
2022/03/16 05:44:54;;;;;;;94.85;68.50;;;;;;;1.56;100.00;102181.44;5094677;28;20043;-67
2022/03/16 05:47:23;;;;;;;98.18;68.18;;;;;;;1.59;100.00;102184.22;5094889;28;20024;-67
2022/03/16 05:49:53;;;;;;;96.30;67.95;;;;;;;1.65;100.00;102200.25;5095191;28;20539;-67
2022/03/16 05:52:21;;;;;;;97.80;66.00;;;;;;;1.65;100.00;102197.63;5094885;28;20032;-67
2022/03/16 05:54:51;;;;;;;91.18;64.60;;;;;;;1.74;100.00;102195.59;5094622;28;20031;-67
2022/03/16 05:57:17;;;;;;;92.82;66.82;;;;;;;1.78;100.00;102200.97;5094698;28;20428;-66
2022/03/16 05:59:43;;;;;;;91.88;66.72;;;;;;;1.84;100.00;102210.09;5094733;28;20028;-67
2022/03/16 06:02:09;;;;;;;89.90;63.70;;;;;;;1.86;100.00;102210.19;5094737;28;20032;-66
2022/03/16 06:04:36;;;;;;;88.13;62.42;;;;;;;1.87;100.00;102215.50;5094713;28;20024;-67
2022/03/16 06:07:03;;;;;;;84.40;61.38;;;;;;;1.90;100.00;102210.47;5086702;28;20035;-68
2022/03/16 06:09:28;;;;;;;82.65;59.70;;;;;;;1.96;100.00;102214.28;5094175;28;20031;-68
2022/03/16 06:11:54;;;;;;;83.32;58.90;;;;;;;2.01;100.00;102218.97;5094272;28;20035;-67
2022/03/16 06:14:19;;;;;;;83.75;58.25;;;;;;;2.05;100.00;102214.81;5094615;28;20024;-68
2022/03/16 06:16:46;;;;;;;82.60;57.90;;;;;;;2.05;100.00;102220.97;5094190;28;20035;-68
2022/03/16 06:19:11;;;;;;;81.47;56.47;;;;;;;2.09;100.00;102228.16;5094316;28;20489;-68
2022/03/16 06:21:36;;;;;;;79.88;56.35;;;;;;;2.11;100.00;102223.00;5094088;28;20067;-68
2022/03/16 06:24:02;;;;;;;74.80;53.75;;;;;;;2.16;100.00;102221.59;5094079;28;20020;-68
2022/03/16 06:26:27;;;;;;;73.85;53.50;;;;;;;2.18;100.00;102212.13;5094169;28;20098;-68
2022/03/16 06:28:52;;;;;;;72.47;52.17;;;;;;;2.19;100.00;102223.50;5083157;28;20026;-70
2022/03/16 06:31:18;;;;;;;70.82;52.40;;;;;;;2.18;100.00;102221.69;5082322;28;20039;-69
2022/03/16 06:33:43;;;;;;;70.97;52.30;;;;;;;2.20;100.00;102223.59;5081112;28;20043;-68
2022/03/16 06:36:08;;;;;;;68.82;49.60;;;;;;;2.25;100.00;102223.88;5077937;28;20044;-69
2022/03/16 06:38:34;;;;;;;68.63;49.83;;;;;;;2.31;100.00;102219.00;5079697;28;20482;-68
2022/03/16 06:40:59;;;;;;;65.10;48.83;;;;;;;2.36;100.00;102211.44;5078784;28;20016;-68
2022/03/16 06:43:24;;;;;;;61.30;46.30;;;;;;;2.40;100.00;102216.03;5078854;28;20093;-68
2022/03/16 06:45:50;;;;;;;61.13;45.00;;;;;;;2.51;100.00;102217.59;5077193;28;20021;-67
2022/03/16 06:48:15;;;;;;;60.83;45.70;;;;;;;2.57;100.00;102217.94;5077505;28;20871;-69
2022/03/16 06:50:40;;;;;;;58.42;43.78;;;;;;;2.64;100.00;102214.00;5076789;28;20032;-68
2022/03/16 06:53:05;;;;;;;57.08;42.60;;;;;;;2.77;100.00;102207.78;5079850;28;20024;-69
2022/03/16 06:55:31;;;;;;;57.20;41.92;;;;;;;2.85;100.00;102198.66;5081481;28;20450;-67
2022/03/16 06:57:56;;;;;;;54.97;41.55;;;;;;;2.96;100.00;102192.34;5075818;28;20013;-67
2022/03/16 07:00:22;;;;;;;54.00;39.85;;;;;;;3.07;100.00;102192.97;5080905;28;20036;-68
2022/03/16 07:02:48;;;;;;;50.70;37.72;;;;;;;3.16;100.00;102195.19;5076486;28;20425;-68
2022/03/16 07:05:14;;;;;;;47.47;35.25;;;;;;;3.26;100.00;102193.97;5079230;28;20372;-68
2022/03/16 07:07:39;;;;;;;46.42;34.90;;;;;;;3.38;100.00;102183.28;5078373;28;20031;-69
2022/03/16 07:10:05;;;;;;;46.75;35.15;;;;;;;3.52;100.00;102190.19;5082534;28;20490;-68
2022/03/16 07:12:30;;;;;;;43.25;31.80;;;;;;;3.69;100.00;102183.25;5077282;28;20107;-68
2022/03/16 07:14:55;;;;;;;43.95;32.20;;;;;;;3.89;100.00;102191.25;5083223;28;20459;-68
2022/03/16 07:17:21;;;;;;;41.63;30.33;;;;;;;4.04;100.00;102181.59;5076065;28;20040;-68
2022/03/16 07:19:46;;;;;;;39.22;28.33;;;;;;;4.17;100.00;102181.41;5074205;28;20068;-68
2022/03/16 07:22:11;;;;;;;40.92;29.60;;;;;;;4.32;100.00;102181.31;5073477;28;20021;-68
2022/03/16 07:24:37;;;;;;;38.72;27.33;;;;;;;4.44;100.00;102183.69;5077032;28;20029;-68
2022/03/16 07:27:05;;;;;;;37.33;26.27;;;;;;;4.59;100.00;102180.00;5077116;28;20058;-69
2022/03/16 07:29:50;;;;;;;38.38;26.10;;;;;;;4.71;100.00;102181.50;5079178;28;20020;-68
2022/03/16 07:32:16;;;;;;;36.50;25.77;;;;;;;4.88;100.00;102176.22;5072498;28;20092;-68
2022/03/16 07:34:43;;;;;;;35.30;25.20;;;;;;;5.02;100.00;102175.19;5075445;28;20020;-69
2022/03/16 07:37:08;;;;;;;33.75;23.00;;;;;;;5.10;100.00;102174.63;5075932;28;20057;-67
2022/03/16 07:39:33;;;;;;;32.78;23.30;;;;;;;5.19;100.00;102168.09;5077331;28;20481;-68
2022/03/16 07:41:59;;;;;;;32.67;22.13;;;;;;;5.30;100.00;102163.38;5076226;28;20021;-68
2022/03/16 07:44:24;;;;;;;32.72;22.58;;;;;;;5.43;100.00;102153.44;5075882;28;20024;-69
2022/03/16 07:46:50;;;;;;;31.90;21.33;;;;;;;5.51;100.00;102155.59;5073312;28;20028;-69
2022/03/16 07:49:15;;;;;;;31.88;21.70;;;;;;;5.61;100.00;102159.53;5080183;28;20025;-68
2022/03/16 07:51:40;;;;;;;31.58;20.30;;;;;;;5.71;100.00;102155.63;5078646;28;20029;-66
2022/03/16 07:54:06;;;;;;;32.05;21.83;;;;;;;5.77;100.00;102163.75;5077746;28;20043;-66
2022/03/16 07:56:31;;;;;;;31.88;21.17;;;;;;;5.85;100.00;102156.22;5076997;28;20090;-66
2022/03/16 07:58:58;;;;;;;31.05;20.35;;;;;;;5.88;100.00;102161.59;5078286;28;20054;-66
2022/03/16 08:01:24;;;;;;;31.13;21.00;;;;;;;5.94;100.00;102167.13;5078287;28;20554;-66
2022/03/16 08:03:49;;;;;;;30.70;21.30;;;;;;;5.93;100.00;102175.84;5076524;28;20028;-67
2022/03/16 08:06:15;;;;;;;31.67;21.08;;;;;;;5.92;100.00;102169.69;5079961;28;20021;-67
2022/03/16 08:08:40;;;;;;;31.55;20.67;;;;;;;6.03;100.00;102177.16;5076420;28;20024;-67
2022/03/16 08:11:07;;;;;;;31.52;20.88;;;;;;;6.13;100.00;102167.97;5078905;28;20040;-67
2022/03/16 08:13:33;;;;;;;33.28;22.17;;;;;;;6.16;100.00;102175.97;5081120;28;20035;-66
2022/03/16 08:15:58;;;;;;;31.80;21.05;;;;;;;6.21;100.00;102159.59;5092118;28;20032;-67
2022/03/16 08:18:23;;;;;;;32.22;21.95;;;;;;;6.21;100.00;102167.47;5092572;28;20540;-67
2022/03/16 08:20:48;;;;;;;30.02;20.63;;;;;;;6.23;100.00;102160.59;5086795;28;20157;-67
2022/03/16 08:23:14;;;;;;;32.50;21.73;;;;;;;6.25;100.00;102158.03;5080374;28;20078;-67
2022/03/16 08:25:40;;;;;;;30.88;19.83;;;;;;;6.38;100.00;102147.19;5080809;28;20469;-66
2022/03/16 08:28:06;;;;;;;29.55;18.23;;;;;;;6.51;100.00;102143.34;5081064;28;20016;-67
2022/03/16 08:30:34;;;;;;;31.67;21.33;;;;;;;6.61;100.00;102163.94;5092468;28;20020;-66
2022/03/16 08:32:59;;;;;;;31.38;21.27;;;;;;;6.80;100.00;102162.03;5087113;28;20106;-65
2022/03/16 08:35:25;;;;;;;31.95;21.42;;;;;;;7.08;100.00;102164.06;5083651;28;20467;-65
2022/03/16 08:37:50;;;;;;;31.70;21.65;;;;;;;7.29;100.00;102160.47;5078169;28;20025;-67
2022/03/16 08:40:16;;;;;;;31.10;19.80;;;;;;;7.47;100.00;102155.00;5080172;28;20123;-65
2022/03/16 08:42:42;;;;;;;30.48;20.63;;;;;;;7.57;100.00;102157.19;5079286;28;20030;-66
2022/03/16 08:45:08;;;;;;;31.15;21.05;;;;;;;7.65;100.00;102154.81;5082143;28;20382;-66
2022/03/16 08:47:33;;;;;;;31.70;20.33;;;;;;;7.70;100.00;102165.50;5059797;28;20115;-65
2022/03/16 08:49:59;;;;;;;31.70;20.40;;;;;;;7.83;100.00;102163.41;5081503;28;20024;-66
2022/03/16 08:52:24;;;;;;;30.00;19.88;;;;;;;8.01;100.00;102171.06;5078695;28;20020;-65
2022/03/16 08:54:50;;;;;;;30.42;19.38;;;;;;;8.32;100.00;102177.41;5079031;28;20107;-66
2022/03/16 08:57:16;;;;;;;30.63;19.80;;;;;;;8.49;100.00;102180.66;5082535;28;20084;-66
2022/03/16 08:59:41;;;;;;;29.20;19.20;;;;;;;8.64;100.00;102184.69;5081356;28;20472;-66
2022/03/16 09:02:07;;;;;;;31.27;19.15;;;;;;;8.71;100.00;102186.69;5082417;28;20024;-67
2022/03/16 09:04:34;;;;;;;28.95;18.55;;;;;;;9.02;100.00;102179.75;5078094;28;20025;-67
2022/03/16 09:07:00;;;;;;;29.42;18.83;;;;;;;9.17;100.00;102200.44;5093126;28;20028;-66
2022/03/16 09:09:26;;;;;;;28.67;17.63;;;;;;;9.43;100.00;102186.31;5096018;28;20035;-67
2022/03/16 09:11:51;;;;;;;28.27;17.77;;;;;;;9.61;100.00;102179.81;5095680;28;20020;-66
2022/03/16 09:14:17;;;;;;;28.23;17.33;;;;;;;9.79;100.00;102190.00;5095547;28;20375;-67
2022/03/16 09:16:44;;;;;;;29.10;17.80;;;;;;;10.11;100.00;102177.69;5094949;28;20467;-67
2022/03/16 09:19:10;;;;;;;28.55;17.25;;;;;;;10.31;100.00;102177.38;5095257;28;20378;-67
2022/03/16 09:21:35;;;;;;;29.50;18.15;;;;;;;10.59;100.00;102171.06;5095623;28;20020;-67
2022/03/16 09:24:00;;;;;;;28.92;18.08;;;;;;;10.68;100.00;102185.38;5093905;28;20466;-67
2022/03/16 09:26:27;;;;;;;28.42;18.42;;;;;;;10.74;100.00;102180.25;5095170;28;20020;-67
2022/03/16 09:28:52;;;;;;;29.45;18.52;;;;;;;11.00;97.46;102183.53;5095280;28;20020;-67
2022/03/16 09:31:18;;;;;;;29.00;18.23;;;;;;;11.19;97.31;102174.25;5095161;28;20032;-67
2022/03/16 09:33:43;;;;;;;29.17;17.45;;;;;;;11.54;95.53;102170.63;5094901;28;20016;-67
2022/03/16 09:36:09;;;;;;;28.98;17.95;;;;;;;11.62;92.33;102159.31;5094955;28;20109;-67
2022/03/16 09:38:35;;;;;;;29.17;17.92;;;;;;;11.96;93.40;102172.41;5094929;28;20020;-67
2022/03/16 09:41:02;;;;;;;28.17;18.40;;;;;;;12.34;89.96;102165.16;5094915;28;20024;-68
2022/03/16 09:43:30;;;;;;;28.27;18.13;;;;;;;12.60;86.54;102169.16;5093809;28;20031;-67
2022/03/16 09:46:08;;;;;;;29.48;18.63;;;;;;;13.04;84.37;102161.88;5094682;28;20055;-67
2022/03/16 09:48:33;;;;;;;28.02;16.70;;;;;;;13.32;82.33;102158.72;5094673;28;20542;-67
2022/03/16 09:51:00;;;;;;;27.88;17.38;;;;;;;13.63;80.96;102153.84;5094640;28;20107;-67
2022/03/16 09:53:29;;;;;;;27.95;17.30;;;;;;;13.82;80.47;102150.56;5095134;28;20111;-66
2022/03/16 09:55:55;;;;;;;27.65;17.23;;;;;;;13.71;79.09;102147.75;5094709;28;20051;-67
2022/03/16 09:58:21;;;;;;;29.52;17.10;;;;;;;13.88;77.97;102144.44;5094367;28;20024;-67
2022/03/16 10:00:47;;;;;;;27.98;17.08;;;;;;;13.98;77.71;102145.41;5094573;28;20030;-67
2022/03/16 10:03:15;;;;;;;28.35;16.50;;;;;;;14.22;75.65;102150.97;5094461;28;20482;-66
2022/03/16 10:05:41;;;;;;;28.20;16.50;;;;;;;14.56;74.13;102145.06;5094209;28;20028;-66
2022/03/16 10:08:08;;;;;;;26.73;16.60;;;;;;;15.20;72.69;102138.47;5094507;28;20028;-66
2022/03/16 10:13:24;;;;;;;27.83;16.80;;;;;;;15.26;69.08;102144.72;5087237;28;20030;-66
2022/03/16 10:16:07;;;;;;;26.90;16.17;;;;;;;15.66;68.92;102133.34;5086538;28;20088;-67
2022/03/16 10:18:35;;;;;;;27.63;16.00;;;;;;;16.04;66.20;102136.16;5090732;28;20032;-66
2022/03/16 10:21:00;;;;;;;27.98;16.40;;;;;;;16.28;64.19;102139.75;5094276;28;20032;-68
2022/03/16 10:23:28;;;;;;;26.27;15.65;;;;;;;16.76;62.77;102133.53;5094024;28;20026;-67
2022/03/16 10:25:55;;;;;;;26.90;16.40;;;;;;;16.48;62.85;102149.53;5094055;28;20387;-66
2022/03/16 10:28:28;;;;;;;26.25;16.48;;;;;;;16.27;62.38;102139.75;5094108;28;20107;-67
2022/03/16 10:30:56;;;;;;;25.90;15.25;;;;;;;16.58;63.90;102137.97;5087586;28;20031;-67
2022/03/16 10:33:23;;;;;;;27.17;15.98;;;;;;;16.56;62.50;102137.09;5093944;28;20110;-67
2022/03/16 10:36:09;;;;;;;26.95;16.75;;;;;;;16.94;62.05;102128.19;5092411;28;20052;-68
2022/03/16 10:38:45;;;;;;;26.52;15.55;;;;;;;17.48;60.94;102130.72;5086928;28;20034;-67
2022/03/16 10:46:34;;;;;;;24.83;14.82;;;;;;;17.86;52.73;102126.06;5093708;28;20023;-67
2022/03/16 10:46:46;;;;;;;24.35;14.40;;;;;;;19.01;46.12;102120.75;5090113;28;20038;-68
2022/03/16 10:49:15;;;;;;;26.00;15.48;;;;;;;18.56;46.09;102108.63;5093449;28;20103;-68
2022/03/16 10:51:41;;;;;;;24.25;13.93;;;;;;;18.62;46.54;102107.69;5093725;28;20032;-69
2022/03/16 10:54:06;;;;;;;24.65;14.80;;;;;;;18.45;46.04;102111.41;5094005;28;20042;-69
2022/03/16 10:56:32;;;;;;;24.23;14.52;;;;;;;18.93;43.86;102107.41;5093562;28;20522;-69
2022/03/16 10:58:59;;;;;;;26.08;14.80;;;;;;;19.41;42.87;102105.09;5093544;28;20035;-68
2022/03/16 11:01:26;;;;;;;23.45;13.57;;;;;;;19.39;42.20;102112.25;5093682;28;20059;-68
2022/03/16 11:03:53;;;;;;;25.60;14.50;;;;;;;19.16;42.07;102115.19;5078784;28;20487;-68
2022/03/16 11:06:22;;;;;;;24.65;13.75;;;;;;;19.75;40.49;102114.50;5086529;28;20070;-68
2022/03/16 11:08:49;;;;;;;24.33;14.05;;;;;;;19.10;41.50;102093.84;5090236;28;20028;-68
2022/03/16 11:14:02;;;;;;;24.70;14.70;;;;;;;17.06;46.45;102111.25;5090495;28;20105;-68